Time;durP1;ratioP1;P1;durP2;ratioP2;P2;SDS_P1;SDS_P2;PMS_P1;PMS_P2;Temp;Humidity;BMP_temperature;BMP_pressure;BME280_temperature;BME280_humidity;BME280_pressure;Samples;Min_cycle;Max_cycle;Signal;HPM_P1;HPM_P2
2023/02/20 00:01:17;;;;;;;13.43;8.73;;;;;;;9.65;92.73;100585.28;5048509;28;20029;-71
2023/02/20 00:03:44;;;;;;;13.52;8.25;;;;;;;9.65;92.64;100585.28;5049658;28;20025;-77
2023/02/20 00:06:10;;;;;;;13.18;7.95;;;;;;;9.46;91.20;100588.78;5049371;28;20058;-71
2023/02/20 00:08:35;;;;;;;13.32;8.07;;;;;;;8.96;91.24;100569.38;5031022;28;20415;-70
2023/02/20 00:11:01;;;;;;;13.50;9.27;;;;;;;8.75;93.68;100554.75;5050402;28;20163;-75
2023/02/20 00:13:27;;;;;;;14.75;8.70;;;;;;;8.97;94.73;100584.03;5050223;28;20459;-74
2023/02/20 00:15:52;;;;;;;14.02;8.70;;;;;;;8.95;94.77;100590.78;5047209;28;20033;-70
2023/02/20 00:18:18;;;;;;;12.68;8.70;;;;;;;8.72;95.39;100537.47;5048698;28;20376;-70
2023/02/20 00:20:43;;;;;;;12.15;8.63;;;;;;;8.71;96.57;100546.00;5049898;28;20051;-71
2023/02/20 00:23:09;;;;;;;12.77;8.57;;;;;;;8.90;96.95;100583.75;5046001;28;20026;-69
2023/02/20 00:25:35;;;;;;;13.80;9.35;;;;;;;8.92;99.02;100581.22;5042568;28;20487;-69
2023/02/20 00:28:00;;;;;;;19.05;9.40;;;;;;;9.06;99.04;100574.16;5049619;28;20553;-71
2023/02/20 00:30:27;;;;;;;15.02;9.57;;;;;;;8.96;98.89;100528.19;5050375;28;20029;-70
2023/02/20 00:32:55;;;;;;;15.35;9.43;;;;;;;9.37;97.87;100566.06;5049793;28;20118;-71
2023/02/20 00:35:23;;;;;;;17.27;9.30;;;;;;;9.41;97.28;100584.22;5050189;28;20044;-72
2023/02/20 00:37:49;;;;;;;15.73;9.05;;;;;;;9.44;97.34;100566.34;5020947;28;20099;-73
2023/02/20 00:40:16;;;;;;;14.45;9.65;;;;;;;9.62;97.24;100581.69;5049938;28;20096;-70
2023/02/20 00:42:43;;;;;;;13.32;9.45;;;;;;;9.71;96.46;100590.69;5049456;28;20120;-71
2023/02/20 00:45:09;;;;;;;15.35;8.80;;;;;;;9.82;95.97;100598.00;5032208;28;20062;-69
2023/02/20 00:47:34;;;;;;;12.13;8.93;;;;;;;9.64;95.24;100562.88;5049835;28;20032;-70
2023/02/20 00:50:00;;;;;;;13.98;9.02;;;;;;;9.86;94.96;100599.91;5049481;28;20037;-71
2023/02/20 00:52:25;;;;;;;12.10;9.23;;;;;;;9.75;96.11;100577.94;5049665;28;20032;-70
2023/02/20 00:54:51;;;;;;;16.45;9.65;;;;;;;9.70;95.47;100588.06;5050020;28;20104;-70
2023/02/20 00:57:18;;;;;;;15.85;9.32;;;;;;;9.64;95.78;100583.50;5049851;28;20406;-69
2023/02/20 00:59:43;;;;;;;14.80;9.35;;;;;;;9.59;95.69;100577.28;5049769;28;20091;-71
2023/02/20 01:02:09;;;;;;;15.18;10.05;;;;;;;9.64;95.86;100580.94;5050119;28;20422;-69
2023/02/20 01:04:34;;;;;;;13.52;9.55;;;;;;;9.71;96.47;100592.41;5049533;28;20029;-70
2023/02/20 01:07:00;;;;;;;15.07;9.65;;;;;;;9.55;97.65;100583.13;5049453;28;20048;-70
2023/02/20 01:09:26;;;;;;;15.30;9.40;;;;;;;9.50;98.31;100582.94;5049604;28;20439;-70
2023/02/20 01:11:52;;;;;;;13.18;9.27;;;;;;;9.51;98.94;100582.13;5030614;28;20044;-70
2023/02/20 01:14:18;;;;;;;15.48;9.43;;;;;;;9.57;98.96;100580.63;5031303;28;20033;-74
2023/02/20 01:16:52;;;;;;;15.98;10.20;;;;;;;9.51;99.37;100576.97;5049714;28;20033;-69
2023/02/20 01:19:19;;;;;;;15.27;10.38;;;;;;;9.48;99.55;100578.53;5048993;28;20033;-72
2023/02/20 01:21:45;;;;;;;14.45;11.15;;;;;;;9.59;99.34;100579.00;5014213;28;20040;-72
2023/02/20 01:24:11;;;;;;;14.50;9.73;;;;;;;9.43;97.36;100539.66;5049217;28;20031;-71
2023/02/20 01:26:37;;;;;;;15.20;9.85;;;;;;;9.69;95.57;100582.03;5049466;28;20029;-70
2023/02/20 01:29:03;;;;;;;15.85;10.40;;;;;;;9.76;94.52;100577.09;5049702;28;20469;-70
2023/02/20 01:31:29;;;;;;;18.42;9.80;;;;;;;9.77;95.08;100582.34;5049631;28;20029;-70
2023/02/20 01:33:54;;;;;;;16.23;10.77;;;;;;;9.82;96.40;100586.00;5048986;28;20049;-69
2023/02/20 01:36:20;;;;;;;14.38;9.82;;;;;;;9.74;97.44;100583.91;5049800;28;20069;-73
2023/02/20 01:38:47;;;;;;;15.18;9.70;;;;;;;9.60;97.68;100565.28;5053516;28;20438;-71
2023/02/20 01:41:13;;;;;;;17.15;10.40;;;;;;;9.69;97.51;100592.34;5053345;28;20021;-73
2023/02/20 01:43:39;;;;;;;13.55;9.82;;;;;;;9.52;97.34;100575.25;5052854;28;20471;-69
2023/02/20 01:46:26;;;;;;;18.52;9.50;;;;;;;9.35;98.25;100582.28;5053285;28;20021;-71
2023/02/20 01:48:59;;;;;;;17.13;10.85;;;;;;;9.18;99.48;100590.16;5053276;28;20029;-71
2023/02/20 01:51:25;;;;;;;17.65;11.23;;;;;;;9.12;100.00;100586.41;5053110;28;20091;-69
2023/02/20 01:53:51;;;;;;;18.60;10.85;;;;;;;9.09;99.98;100588.84;5001401;28;20037;-69
2023/02/20 01:56:16;;;;;;;15.32;10.90;;;;;;;9.11;99.23;100592.38;5052853;28;20464;-71
2023/02/20 01:58:45;;;;;;;16.60;11.48;;;;;;;9.15;98.86;100581.41;5053435;28;20032;-70
2023/02/20 02:01:11;;;;;;;20.00;11.60;;;;;;;9.06;98.53;100571.56;5053005;28;20550;-72
2023/02/20 02:03:42;;;;;;;16.40;10.85;;;;;;;9.12;98.26;100579.56;5052022;28;20029;-72
2023/02/20 02:06:10;;;;;;;17.35;11.50;;;;;;;9.05;97.41;100592.97;5052267;28;20029;-72
2023/02/20 02:08:37;;;;;;;17.73;12.20;;;;;;;8.88;98.26;100593.09;5052698;28;20052;-72
2023/02/20 02:11:19;;;;;;;18.45;11.27;;;;;;;8.85;98.68;100590.38;5053135;28;20491;-70
2023/02/20 02:13:44;;;;;;;17.90;12.05;;;;;;;9.01;97.62;100598.78;5052513;28;20033;-74
2023/02/20 02:16:25;;;;;;;16.80;11.10;;;;;;;9.12;96.24;100595.03;5052245;28;20087;-69
2023/02/20 02:19:28;;;;;;;17.38;11.55;;;;;;;9.23;95.93;100598.97;5052683;28;20024;-70
2023/02/20 02:22:21;;;;;;;16.58;10.45;;;;;;;9.17;96.40;100600.38;5039751;28;20399;-70
2023/02/20 02:25:10;;;;;;;17.35;11.25;;;;;;;8.97;97.32;100605.53;5052202;28;20467;-72
2023/02/20 02:27:42;;;;;;;15.50;11.18;;;;;;;8.92;98.22;100590.66;5052094;28;20025;-71
2023/02/20 02:30:13;;;;;;;17.65;11.55;;;;;;;9.00;96.31;100584.19;5052479;28;20028;-70
2023/02/20 02:33:27;;;;;;;16.08;10.57;;;;;;;8.99;93.31;100592.72;5052191;28;20048;-71
2023/02/20 02:36:11;;;;;;;15.73;10.00;;;;;;;8.90;92.59;100591.47;4970413;28;20047;-72
2023/02/20 02:38:54;;;;;;;19.50;10.68;;;;;;;8.95;91.65;100598.50;4970486;28;20035;-70
2023/02/20 02:41:32;;;;;;;16.95;10.10;;;;;;;8.98;91.26;100614.13;4971077;28;20035;-69
2023/02/20 02:44:08;;;;;;;16.60;10.40;;;;;;;9.05;90.56;100629.03;4970383;28;20035;-69
2023/02/20 02:46:45;;;;;;;14.32;11.05;;;;;;;9.04;90.65;100632.41;4970807;28;20047;-72
2023/02/20 02:49:20;;;;;;;15.25;10.40;;;;;;;8.84;89.99;100616.94;4969513;28;20038;-72
2023/02/20 02:51:48;;;;;;;14.27;8.93;;;;;;;8.73;89.65;100618.13;4970631;28;20049;-70
2023/02/20 02:54:21;;;;;;;15.40;9.90;;;;;;;8.47;90.49;100597.19;4935202;29;20102;-69
2023/02/20 02:56:47;;;;;;;14.75;9.30;;;;;;;8.65;90.69;100637.47;4965605;28;20035;-69
2023/02/20 02:59:27;;;;;;;15.35;9.20;;;;;;;8.62;89.46;100622.75;4970246;28;20054;-72
2023/02/20 03:01:58;;;;;;;;;;;;;;;8.66;89.02;100634.09;4970675;28;20082;-69
2023/02/20 03:04:28;;;;;;;14.93;8.95;;;;;;;8.56;88.52;100620.78;4970400;28;19917;-69
2023/02/20 03:06:59;;;;;;;13.27;8.80;;;;;;;8.64;88.22;100621.16;4970268;28;20041;-71
2023/02/20 03:09:35;;;;;;;13.18;8.77;;;;;;;8.67;87.94;100641.91;4970016;28;20486;-69
2023/02/20 03:12:05;;;;;;;15.52;8.82;;;;;;;8.67;87.61;100657.34;5011496;28;20037;-69
2023/02/20 03:17:32;;;;;;;12.07;8.27;;;;;;;8.19;88.01;100611.28;5051846;28;20107;-72
2023/02/20 03:20:07;;;;;;;15.70;9.20;;;;;;;8.43;88.38;100660.44;5051493;28;20029;-71
2023/02/20 03:22:41;;;;;;;15.43;9.05;;;;;;;8.37;88.16;100642.16;5051334;28;21131;-70
2023/02/20 03:25:12;;;;;;;13.48;9.25;;;;;;;8.66;87.74;100680.41;5051355;28;20052;-69
2023/02/20 03:27:50;;;;;;;14.25;8.82;;;;;;;8.77;86.53;100686.94;5051025;28;20087;-72
2023/02/20 03:30:45;;;;;;;14.48;8.73;;;;;;;8.83;85.55;100676.06;5051137;28;20575;-69
2023/02/20 03:44:31;;;;;;;11.13;7.32;;;;;;;8.53;84.68;100696.97;4989132;28;20044;-69
2023/02/20 03:46:59;;;;;;;10.93;6.70;;;;;;;8.37;84.01;100672.13;4988862;28;20088;-72
2023/02/20 03:49:31;;;;;;;12.27;7.53;;;;;;;8.32;83.76;100647.88;4988775;28;20030;-69
2023/02/20 03:51:56;;;;;;;10.13;7.25;;;;;;;8.60;83.51;100675.88;4989283;28;20026;-69
2023/02/20 03:54:22;;;;;;;10.80;7.55;;;;;;;8.58;83.58;100678.38;4988944;28;20588;-72
2023/02/20 03:56:53;;;;;;;11.95;8.20;;;;;;;8.52;82.70;100665.22;4988533;28;20468;-69
2023/02/20 03:59:27;;;;;;;10.27;6.80;;;;;;;8.72;81.06;100671.31;4988585;28;20026;-74
2023/02/20 04:01:58;;;;;;;10.98;6.88;;;;;;;8.74;80.15;100654.22;4988467;28;20539;-69
2023/02/20 04:04:47;;;;;;;11.75;6.75;;;;;;;9.01;80.52;100687.25;4988890;28;20042;-68
2023/02/20 04:07:23;;;;;;;11.15;7.45;;;;;;;9.01;80.60;100686.34;4988830;28;20022;-70
2023/02/20 04:09:48;;;;;;;14.52;8.05;;;;;;;8.97;81.26;100695.66;5011854;28;20071;-68
2023/02/20 04:12:25;;;;;;;13.75;8.05;;;;;;;8.83;82.19;100697.53;5050583;28;20061;-69
2023/02/20 04:14:54;;;;;;;11.82;8.32;;;;;;;8.77;82.89;100710.13;5048870;28;20052;-71
2023/02/20 04:17:25;;;;;;;14.50;8.35;;;;;;;8.69;83.13;100721.75;5049388;28;20056;-72
2023/02/20 04:19:51;;;;;;;15.20;9.40;;;;;;;8.58;83.31;100703.22;5049506;28;20025;-68
2023/02/20 04:22:21;;;;;;;13.43;9.23;;;;;;;8.52;83.99;100711.53;5012560;28;20033;-69
2023/02/20 04:24:53;;;;;;;12.82;7.88;;;;;;;8.47;84.04;100709.53;5036490;28;20025;-70
2023/02/20 04:27:19;;;;;;;11.70;7.93;;;;;;;8.47;83.63;100710.41;5049428;28;20113;-68
2023/02/20 04:29:45;;;;;;;11.30;7.75;;;;;;;8.30;82.94;100673.53;5049958;28;20485;-68
2023/02/20 04:32:11;;;;;;;12.48;8.18;;;;;;;8.57;82.10;100692.03;5049788;28;20055;-68
2023/02/20 04:34:36;;;;;;;12.75;8.15;;;;;;;8.66;81.53;100701.00;5049773;28;20049;-70
2023/02/20 04:37:05;;;;;;;12.25;8.38;;;;;;;8.72;81.75;100709.91;5031632;28;20099;-70
2023/02/20 04:39:30;;;;;;;12.98;9.15;;;;;;;8.66;82.00;100704.47;5046883;28;20059;-70
2023/02/20 04:41:56;;;;;;;15.90;8.50;;;;;;;8.67;81.99;100702.78;5048699;28;20056;-72
2023/02/20 04:44:30;;;;;;;16.30;9.05;;;;;;;8.46;81.80;100666.56;5049815;28;20426;-68
2023/02/20 04:46:56;;;;;;;14.10;8.38;;;;;;;8.65;82.17;100717.25;5049488;28;20435;-70
2023/02/20 04:49:21;;;;;;;13.40;8.35;;;;;;;8.36;82.37;100678.09;5046830;28;20025;-71
2023/02/20 04:51:46;;;;;;;13.63;8.75;;;;;;;8.64;82.27;100725.81;5048666;28;20029;-73
2023/02/20 04:54:12;;;;;;;12.77;8.90;;;;;;;8.65;82.38;100714.66;5049022;28;20035;-70
2023/02/20 04:56:37;;;;;;;13.88;8.38;;;;;;;8.53;82.50;100715.84;5049177;28;20028;-71
2023/02/20 04:59:03;;;;;;;15.35;9.63;;;;;;;8.59;82.67;100728.13;5049198;28;20025;-71
2023/02/20 05:01:29;;;;;;;13.85;9.13;;;;;;;8.60;82.48;100722.19;5048916;28;20108;-71
2023/02/20 05:03:54;;;;;;;18.80;9.60;;;;;;;8.49;82.85;100713.06;5031456;28;20029;-71
2023/02/20 05:06:19;;;;;;;13.50;8.68;;;;;;;8.61;82.79;100725.63;5030927;28;20459;-69
2023/02/20 05:08:45;;;;;;;15.35;9.95;;;;;;;8.38;82.79;100684.19;5048647;28;20056;-71
2023/02/20 05:11:10;;;;;;;13.07;8.32;;;;;;;8.34;82.64;100669.44;5049494;28;20037;-69
2023/02/20 05:13:36;;;;;;;12.82;7.85;;;;;;;8.62;82.58;100736.00;5053095;28;20435;-72
2023/02/20 05:16:01;;;;;;;14.55;8.98;;;;;;;8.59;83.17;100741.00;5055434;28;20071;-71
2023/02/20 05:18:29;;;;;;;14.25;9.38;;;;;;;8.52;83.81;100749.22;5049085;28;20052;-70
2023/02/20 05:23:38;;;;;;;14.90;9.55;;;;;;;8.60;83.67;100747.03;5056080;28;20048;-70
2023/02/20 05:26:08;;;;;;;14.75;9.70;;;;;;;8.52;84.74;100757.84;5054772;28;20029;-70
2023/02/20 05:28:35;;;;;;;16.58;10.00;;;;;;;8.51;85.04;100757.75;5056287;28;20051;-69
2023/02/20 05:31:02;;;;;;;14.32;9.25;;;;;;;8.59;84.59;100761.59;5056556;28;20055;-71
2023/02/20 05:33:27;;;;;;;13.43;9.50;;;;;;;8.58;85.12;100760.72;5055578;28;20017;-71
2023/02/20 05:35:52;;;;;;;17.13;10.45;;;;;;;8.62;85.18;100771.16;5055584;28;20426;-71
2023/02/20 05:38:18;;;;;;;13.00;8.60;;;;;;;8.63;84.97;100762.63;5056153;28;20025;-71
2023/02/20 05:40:44;;;;;;;14.93;9.40;;;;;;;8.67;85.03;100770.59;5055862;28;20060;-71
2023/02/20 05:43:09;;;;;;;14.40;9.32;;;;;;;8.61;84.62;100753.94;5034982;28;20034;-72
2023/02/20 05:45:35;;;;;;;13.52;8.73;;;;;;;8.78;84.35;100780.53;5046153;28;20025;-72
2023/02/20 05:48:00;;;;;;;13.65;9.05;;;;;;;8.67;84.89;100788.63;5054003;28;20053;-72
2023/02/20 05:50:26;;;;;;;13.18;8.80;;;;;;;8.70;85.27;100793.91;5055967;28;20025;-74
2023/02/20 05:52:51;;;;;;;14.50;8.88;;;;;;;8.65;85.30;100804.75;5056489;28;20487;-72
2023/02/20 05:55:17;;;;;;;13.93;9.60;;;;;;;8.57;85.79;100805.28;5056249;28;20036;-72
2023/02/20 05:57:42;;;;;;;17.33;10.27;;;;;;;8.66;85.71;100825.44;5056105;28;20025;-72
2023/02/20 06:00:09;;;;;;;15.88;9.95;;;;;;;8.70;85.54;100829.06;5034840;28;20017;-71
2023/02/20 06:02:34;;;;;;;14.70;10.43;;;;;;;8.69;85.95;100819.56;5055778;28;20044;-68
2023/02/20 06:04:59;;;;;;;14.23;10.05;;;;;;;8.70;85.67;100827.34;5055267;28;20467;-75
2023/02/20 06:07:25;;;;;;;19.13;9.38;;;;;;;8.46;85.35;100791.00;5058793;28;20415;-70
2023/02/20 06:09:50;;;;;;;17.10;11.45;;;;;;;8.86;85.62;100847.03;5053812;28;20076;-70
2023/02/20 06:12:16;;;;;;;17.33;10.90;;;;;;;8.93;85.39;100855.06;5056111;28;20116;-74
2023/02/20 06:14:41;;;;;;;15.27;9.85;;;;;;;8.87;84.83;100824.72;5055577;28;20087;-75
2023/02/20 06:17:06;;;;;;;19.40;10.68;;;;;;;9.05;84.47;100846.25;5055885;28;20448;-73
2023/02/20 06:19:32;;;;;;;16.55;10.65;;;;;;;9.10;84.09;100859.34;5055349;28;20407;-73
2023/02/20 06:21:57;;;;;;;16.23;9.77;;;;;;;9.16;84.14;100858.75;5055033;28;20025;-76
2023/02/20 06:24:23;;;;;;;16.60;10.45;;;;;;;9.28;83.78;100851.63;5053323;28;20666;-75
2023/02/20 06:26:49;;;;;;;11.80;7.10;;;;;;;9.50;82.22;100852.66;5052737;28;20158;-71
2023/02/20 06:29:15;;;;;;;10.50;6.93;;;;;;;9.59;81.62;100829.88;5052693;28;20044;-72
2023/02/20 06:31:41;;;;;;;16.55;9.35;;;;;;;9.51;81.43;100796.03;5055102;28;20040;-74
2023/02/20 06:34:07;;;;;;;12.02;5.75;;;;;;;9.74;80.43;100813.38;5052135;28;20803;-71
2023/02/20 06:36:36;;;;;;;11.75;7.22;;;;;;;9.91;80.41;100827.06;5051902;28;20118;-73
2023/02/20 06:39:02;;;;;;;11.43;7.30;;;;;;;9.92;79.76;100821.97;5052099;28;20028;-70
2023/02/20 06:41:27;;;;;;;16.58;8.05;;;;;;;9.98;79.53;100811.91;5052060;28;20075;-73
2023/02/20 06:44:13;;;;;;;16.13;7.40;;;;;;;10.21;78.89;100837.84;4971635;28;20482;-70
2023/02/20 06:46:38;;;;;;;13.68;6.38;;;;;;;10.25;77.49;100838.88;4982133;28;20042;-71
2023/02/20 06:49:04;;;;;;;10.50;6.57;;;;;;;10.32;77.70;100836.63;4990628;28;20086;-75
2023/02/20 06:51:31;;;;;;;9.23;5.88;;;;;;;10.44;76.53;100838.00;4989983;28;20459;-75
2023/02/20 06:53:58;;;;;;;10.80;6.05;;;;;;;10.40;76.35;100823.22;4990153;28;20623;-70
2023/02/20 06:56:27;;;;;;;10.43;4.25;;;;;;;10.48;76.16;100853.69;4974197;28;20031;-70
2023/02/20 06:58:54;;;;;;;13.32;4.88;;;;;;;10.45;76.01;100843.22;4979113;28;20050;-70
2023/02/20 07:01:22;;;;;;;7.03;4.32;;;;;;;10.52;75.54;100842.69;4971697;28;20094;-74
2023/02/20 07:03:49;;;;;;;6.70;4.50;;;;;;;10.48;76.04;100842.47;4970100;28;20497;-73
2023/02/20 07:06:16;;;;;;;9.43;5.25;;;;;;;10.62;75.72;100838.78;4970439;28;20027;-71
2023/02/20 07:08:41;;;;;;;9.27;5.45;;;;;;;10.80;75.65;100856.78;4982816;28;20124;-71
2023/02/20 07:11:07;;;;;;;8.95;4.72;;;;;;;10.74;74.93;100863.38;4982904;28;20113;-71
2023/02/20 07:13:33;;;;;;;7.10;3.72;;;;;;;10.82;74.75;100864.59;4970022;28;20402;-73
2023/02/20 07:15:58;;;;;;;5.93;4.38;;;;;;;10.98;74.86;100853.19;4963682;28;20046;-72
2023/02/20 07:18:26;;;;;;;7.63;3.63;;;;;;;10.86;73.16;100816.53;4970178;28;20041;-73
2023/02/20 07:20:52;;;;;;;8.85;4.45;;;;;;;11.16;73.12;100845.31;4970113;28;20031;-70
2023/02/20 07:23:18;;;;;;;5.60;3.20;;;;;;;11.22;71.81;100850.72;4970136;28;20022;-70
2023/02/20 07:25:44;;;;;;;5.95;3.63;;;;;;;11.09;72.51;100805.44;4970246;28;20438;-69
2023/02/20 07:28:09;;;;;;;3.60;2.40;;;;;;;11.56;69.76;100861.53;4953623;28;20065;-71
2023/02/20 07:30:35;;;;;;;4.95;2.80;;;;;;;11.58;69.02;100857.31;4969974;28;20063;-71
2023/02/20 07:33:00;;;;;;;9.82;3.50;;;;;;;11.45;69.56;100825.81;4970351;28;20066;-70
2023/02/20 07:35:26;;;;;;;6.93;3.08;;;;;;;11.67;69.71;100864.53;4987710;28;20050;-74
2023/02/20 07:37:51;;;;;;;5.10;3.17;;;;;;;11.85;69.26;100857.50;4973357;28;20034;-72
2023/02/20 07:40:17;;;;;;;5.20;3.53;;;;;;;11.97;69.14;100859.69;4989439;28;20031;-70
2023/02/20 07:42:42;;;;;;;9.57;3.30;;;;;;;12.16;68.97;100865.53;4989166;28;20050;-72
2023/02/20 07:45:09;;;;;;;4.18;2.78;;;;;;;12.21;67.67;100841.59;4989419;28;20022;-70
2023/02/20 07:47:34;;;;;;;7.45;4.95;;;;;;;12.21;66.22;100831.25;5033079;28;20041;-77
2023/02/20 07:50:00;;;;;;;7.43;2.97;;;;;;;12.50;67.00;100856.38;5050808;28;20505;-70
2023/02/20 07:52:25;;;;;;;6.05;2.75;;;;;;;12.61;64.75;100855.06;5050862;28;20037;-69
2023/02/20 07:54:51;;;;;;;5.22;2.28;;;;;;;12.71;63.45;100851.97;5049974;28;20085;-72
2023/02/20 07:57:16;;;;;;;4.63;2.30;;;;;;;12.70;62.65;100857.97;5041164;28;20786;-68
2023/02/20 07:59:42;;;;;;;4.88;2.08;;;;;;;12.74;62.10;100861.56;5034411;28;20036;-69
2023/02/20 08:02:07;;;;;;;4.07;2.38;;;;;;;12.86;62.60;100843.84;5039152;28;20029;-71
2023/02/20 08:04:32;;;;;;;6.28;2.50;;;;;;;12.88;61.17;100849.94;5036623;28;20044;-71
2023/02/20 08:06:58;;;;;;;2.55;1.75;;;;;;;12.80;60.82;100812.53;5031355;28;20472;-73
2023/02/20 08:09:23;;;;;;;3.20;2.00;;;;;;;13.31;60.22;100862.53;5031709;28;20113;-71
2023/02/20 08:11:49;;;;;;;4.18;2.00;;;;;;;13.47;58.71;100864.84;5045042;28;20027;-72
2023/02/20 08:14:15;;;;;;;4.68;2.05;;;;;;;13.43;56.60;100861.28;5050765;28;20502;-71
2023/02/20 08:16:40;;;;;;;4.97;1.80;;;;;;;13.30;55.07;100866.00;5051068;28;20033;-69
2023/02/20 08:19:06;;;;;;;3.05;1.83;;;;;;;13.35;54.37;100867.88;5050754;28;20016;-73
2023/02/20 08:21:31;;;;;;;3.22;1.77;;;;;;;13.47;53.76;100859.66;5051184;28;20116;-72
2023/02/20 08:23:56;;;;;;;3.15;1.60;;;;;;;13.70;53.24;100859.47;5051347;28;20021;-70
2023/02/20 08:26:22;;;;;;;2.38;1.73;;;;;;;13.76;52.43;100859.66;5051274;28;20040;-69
2023/02/20 08:28:49;;;;;;;4.32;2.10;;;;;;;13.99;53.34;100862.94;5050814;28;20087;-69
2023/02/20 08:31:15;;;;;;;8.45;2.50;;;;;;;13.50;52.87;100825.16;5050950;28;20065;-69
2023/02/20 08:33:40;;;;;;;2.70;1.67;;;;;;;13.82;51.38;100857.25;5050480;28;20459;-71
2023/02/20 08:36:06;;;;;;;3.40;1.75;;;;;;;13.77;51.05;100839.78;5051001;28;20067;-69
2023/02/20 08:38:36;;;;;;;5.18;1.90;;;;;;;14.00;50.56;100853.44;5051007;28;20029;-69
2023/02/20 08:41:07;;;;;;;2.88;1.85;;;;;;;14.02;47.03;100851.78;5051166;28;20040;-69
2023/02/20 08:43:38;;;;;;;3.72;1.77;;;;;;;14.10;48.99;100876.22;5051041;28;20036;-72
2023/02/20 08:46:05;;;;;;;4.03;1.60;;;;;;;14.16;46.54;100881.59;5050203;28;20111;-70
2023/02/20 08:48:31;;;;;;;3.50;1.67;;;;;;;14.30;46.54;100855.16;5032785;28;20029;-72
2023/02/20 08:50:57;;;;;;;2.53;1.50;;;;;;;14.57;43.83;100868.88;4998895;28;20041;-69
2023/02/20 08:53:22;;;;;;;2.90;1.60;;;;;;;14.62;44.77;100855.16;5050631;28;20025;-73
2023/02/20 08:55:48;;;;;;;1.90;1.58;;;;;;;14.61;41.90;100858.59;5008203;28;20037;-69
2023/02/20 08:58:18;;;;;;;3.00;1.90;;;;;;;14.64;42.38;100838.78;5008569;28;20065;-72
2023/02/20 09:00:43;;;;;;;;;;;;;;;14.80;42.93;100859.97;5009018;28;20097;-71
2023/02/20 09:03:08;;;;;;;3.22;1.80;;;;;;;14.92;42.63;100856.84;5008626;28;19914;-70
2023/02/20 09:05:35;;;;;;;2.42;1.75;;;;;;;14.88;41.56;100868.88;5008483;28;20037;-69
2023/02/20 09:08:01;;;;;;;4.38;1.70;;;;;;;14.68;40.73;100812.03;5008281;28;20471;-72
2023/02/20 09:10:26;;;;;;;4.53;1.50;;;;;;;14.63;40.70;100817.91;5008409;28;20575;-72
2023/02/20 09:12:52;;;;;;;2.83;1.67;;;;;;;14.44;38.30;100851.19;5008454;28;20038;-71
2023/02/20 09:15:18;;;;;;;3.38;1.70;;;;;;;14.22;39.06;100860.13;5008338;28;20096;-71
2023/02/20 09:17:46;;;;;;;4.05;2.67;;;;;;;14.48;39.14;100857.38;5008501;28;20421;-72
2023/02/20 09:20:14;;;;;;;1.92;1.35;;;;;;;14.21;38.47;100833.28;5008255;28;20041;-73
2023/02/20 09:22:39;;;;;;;2.95;1.90;;;;;;;14.48;40.34;100857.38;5008100;28;20040;-69
2023/02/20 09:25:05;;;;;;;2.50;1.80;;;;;;;14.35;39.37;100853.56;5008384;28;20030;-71
2023/02/20 09:27:31;;;;;;;2.92;1.60;;;;;;;14.16;38.07;100846.97;5042016;28;20123;-69
2023/02/20 09:29:57;;;;;;;2.83;1.90;;;;;;;14.14;38.45;100852.09;5050155;28;20452;-69
2023/02/20 09:32:22;;;;;;;4.40;1.75;;;;;;;14.18;40.18;100855.66;5050425;28;20116;-69
2023/02/20 09:34:47;;;;;;;4.63;2.10;;;;;;;14.20;41.98;100877.38;5050341;28;20057;-69
2023/02/20 09:37:13;;;;;;;5.63;3.65;;;;;;;14.17;43.06;100872.13;5050572;28;20035;-72
2023/02/20 09:39:39;;;;;;;2.92;1.80;;;;;;;14.20;40.91;100885.16;5050314;28;20032;-69
2023/02/20 09:42:27;;;;;;;2.53;1.85;;;;;;;14.49;40.62;100888.59;5050339;28;20396;-73
2023/02/20 09:45:03;;;;;;;11.87;6.47;;;;;;;14.66;38.23;100883.00;5050350;28;20043;-70
2023/02/20 09:47:38;;;;;;;12.50;6.63;;;;;;;14.91;37.67;100884.53;5050026;28;20119;-71
2023/02/20 09:50:14;;;;;;;8.32;2.35;;;;;;;15.06;35.50;100894.44;5050271;28;20071;-73
2023/02/20 09:52:43;;;;;;;11.48;3.80;;;;;;;15.31;34.83;100882.91;5007964;28;20443;-74
2023/02/20 09:55:19;;;;;;;5.97;3.17;;;;;;;15.26;34.71;100887.13;4975244;28;20042;-69
2023/02/20 09:57:48;;;;;;;3.63;1.90;;;;;;;15.36;36.94;100886.53;5008695;28;20037;-76
2023/02/20 10:00:35;;;;;;;7.32;2.33;;;;;;;15.51;36.52;100882.50;5011620;28;20493;-76
2023/02/20 10:03:16;;;;;;;5.68;2.17;;;;;;;15.56;35.74;100880.03;5001683;28;20538;-72
2023/02/20 10:05:44;;;;;;;3.90;1.70;;;;;;;15.35;34.01;100876.06;4991845;28;20460;-69
2023/02/20 10:08:13;;;;;;;4.13;1.90;;;;;;;14.99;33.20;100838.81;4991904;28;20129;-69
2023/02/20 10:10:38;;;;;;;4.25;1.98;;;;;;;15.24;33.56;100864.53;4991859;28;20041;-72
2023/02/20 10:13:30;;;;;;;5.22;1.77;;;;;;;15.02;33.12;100877.00;4991970;28;20034;-69
2023/02/20 10:15:55;;;;;;;4.88;2.33;;;;;;;14.99;33.51;100876.91;4991876;28;20085;-69
2023/02/20 10:18:35;;;;;;;9.93;2.10;;;;;;;14.76;34.24;100905.81;4972342;28;20070;-68
2023/02/20 10:21:39;;;;;;;6.18;2.25;;;;;;;14.63;32.18;100901.97;4972165;28;20042;-69
2023/02/20 10:24:36;;;;;;;3.80;2.58;;;;;;;14.68;33.51;100907.34;4911510;29;20042;-68
2023/02/20 10:27:17;;;;;;;2.83;2.10;;;;;;;14.79;33.51;100911.09;4933858;29;20083;-70
2023/02/20 10:29:44;;;;;;;7.32;2.00;;;;;;;15.06;32.69;100910.03;4933708;29;20046;-73
2023/02/20 10:32:18;;;;;;;5.57;1.90;;;;;;;15.13;31.84;100918.91;4933684;29;20081;-71
2023/02/20 10:34:57;;;;;;;7.70;2.38;;;;;;;15.16;32.14;100918.97;4933346;29;20052;-71
2023/02/20 10:37:27;;;;;;;4.30;1.50;;;;;;;15.10;31.14;100883.25;4933314;29;20043;-71
2023/02/20 10:40:04;;;;;;;4.28;1.80;;;;;;;15.32;32.98;100915.03;4933443;29;20070;-71
2023/02/20 10:42:39;;;;;;;5.90;2.85;;;;;;;15.14;30.13;100886.81;4933563;29;20040;-69
2023/02/20 10:45:26;;;;;;;4.82;2.25;;;;;;;15.37;31.09;100893.47;4933417;29;20055;-69
2023/02/20 10:48:04;;;;;;;4.80;2.90;;;;;;;15.54;30.85;100887.81;4933385;29;20062;-70
2023/02/20 10:50:42;;;;;;;2.78;1.75;;;;;;;15.62;30.34;100875.84;4970729;28;20440;-69
2023/02/20 10:53:30;;;;;;;12.25;2.63;;;;;;;15.61;32.21;100875.81;4971794;28;20034;-69
2023/02/20 10:55:56;;;;;;;54.17;5.65;;;;;;;15.28;32.35;100877.66;4971742;28;20035;-72
2023/02/20 10:58:32;;;;;;;16.23;2.88;;;;;;;15.09;31.61;100884.13;4971601;28;20563;-69
2023/02/20 11:01:02;;;;;;;60.00;6.38;;;;;;;14.95;31.95;100886.34;5004282;28;20049;-69
2023/02/20 11:03:48;;;;;;;82.85;9.40;;;;;;;14.94;31.70;100888.94;5032885;28;20060;-72
2023/02/20 11:06:18;;;;;;;6.07;2.45;;;;;;;15.00;32.14;100902.09;5032956;28;20048;-71
2023/02/20 11:08:45;;;;;;;2.80;1.92;;;;;;;15.25;32.06;100911.38;5032257;28;20064;-70
2023/02/20 11:11:22;;;;;;;26.80;3.45;;;;;;;15.14;32.23;100907.63;5032496;28;20534;-69
2023/02/20 11:13:47;;;;;;;48.90;5.43;;;;;;;15.03;30.66;100916.03;5032722;28;20034;-69
2023/02/20 11:16:25;;;;;;;19.15;2.78;;;;;;;15.19;30.54;100914.72;5032541;28;20033;-69
2023/02/20 11:19:01;;;;;;;16.77;3.15;;;;;;;15.43;31.08;100915.31;5032172;28;20502;-69
2023/02/20 11:21:43;;;;;;;14.82;3.28;;;;;;;15.80;29.38;100931.75;5032528;28;20462;-69
2023/02/20 11:24:29;;;;;;;4.53;2.08;;;;;;;15.81;30.28;100929.22;5046636;28;20102;-73
2023/02/20 11:27:06;;;;;;;3.80;1.67;;;;;;;15.57;29.92;100921.69;5052119;28;20032;-69
2023/02/20 11:29:42;;;;;;;2.60;2.03;;;;;;;15.90;30.31;100912.06;5052002;28;20031;-71
2023/02/20 11:32:37;;;;;;;2.22;1.65;;;;;;;16.03;29.48;100908.00;5052252;28;20463;-71
2023/02/20 11:35:17;;;;;;;12.05;2.42;;;;;;;15.87;28.92;100892.03;5052273;28;20407;-68
2023/02/20 11:37:47;;;;;;;5.32;2.33;;;;;;;15.80;28.71;100895.31;5052293;28;20029;-71
2023/02/20 11:40:18;;;;;;;3.65;1.80;;;;;;;15.80;28.82;100893.59;5052235;28;20028;-75
2023/02/20 11:42:45;;;;;;;3.00;2.28;;;;;;;16.04;30.39;100889.81;5051795;28;20553;-72
2023/02/20 11:45:16;;;;;;;6.38;2.38;;;;;;;16.20;29.26;100898.84;5052011;28;20068;-71
2023/02/20 11:47:42;;;;;;;5.32;2.28;;;;;;;15.99;28.57;100897.50;5051973;28;20025;-71
2023/02/20 11:50:18;;;;;;;2.15;1.83;;;;;;;15.99;27.97;100907.94;5052159;28;20020;-71
2023/02/20 11:53:06;;;;;;;2.83;2.03;;;;;;;16.07;28.84;100915.03;5051501;28;20017;-71